Time;durP1;ratioP1;P1;durP2;ratioP2;P2;SDS_P1;SDS_P2;PMS_P1;PMS_P2;Temp;Humidity;BMP_temperature;BMP_pressure;BME280_temperature;BME280_humidity;BME280_pressure;Samples;Min_cycle;Max_cycle;Signal;HPM_P1;HPM_P2
2022/09/22 00:09:02;;;;;;;0.50;0.50;;;;;;;9.89;64.60;101026.50;18420031;32;20138;-57
2022/09/22 00:19:05;;;;;;;0.50;0.50;;;;;;;9.65;64.94;101035.78;18433146;32;20116;-56
2022/09/22 00:29:10;;;;;;;0.60;0.60;;;;;;;9.54;65.31;101026.13;18432764;32;20097;-56
2022/09/22 00:39:14;;;;;;;0.50;0.50;;;;;;;9.66;64.67;101027.13;18433857;32;20104;-56
2022/09/22 00:49:20;;;;;;;0.88;0.88;;;;;;;9.48;65.22;101020.81;18432273;32;20154;-56
2022/09/22 00:59:24;;;;;;;0.73;0.73;;;;;;;9.48;64.56;101012.16;18433413;32;20089;-57
2022/09/22 01:09:31;;;;;;;0.68;0.68;;;;;;;9.17;65.55;101007.41;18417132;32;20139;-56
2022/09/22 01:20:13;;;;;;;0.40;0.40;;;;;;;9.24;64.35;101006.63;18431489;32;20088;-56
2022/09/22 01:30:22;;;;;;;0.60;0.60;;;;;;;9.07;64.42;101006.44;18430295;32;20408;-56
2022/09/22 01:40:30;;;;;;;0.82;0.82;;;;;;;9.07;65.16;101010.75;18430533;32;20463;-56
2022/09/22 01:50:37;;;;;;;0.60;0.60;;;;;;;9.00;65.16;101009.78;18429961;32;20116;-56
2022/09/22 02:00:44;;;;;;;0.60;0.60;;;;;;;8.90;65.45;101000.09;18429117;32;20090;-56
2022/09/22 02:10:48;;;;;;;0.50;0.50;;;;;;;8.97;64.67;100994.13;18428577;32;20086;-56
2022/09/22 02:20:52;;;;;;;0.60;0.60;;;;;;;8.83;65.59;100993.94;18427836;32;20097;-56
2022/09/22 02:30:57;;;;;;;0.60;0.60;;;;;;;8.92;65.22;100991.47;18427247;32;20124;-57
2022/09/22 02:41:27;;;;;;;0.60;0.60;;;;;;;8.80;64.90;100997.38;18429524;32;20158;-56
2022/09/22 02:51:33;;;;;;;0.60;0.60;;;;;;;8.65;64.73;100990.19;18435230;32;20176;-56
2022/09/22 03:01:36;;;;;;;0.52;0.52;;;;;;;8.53;65.08;100993.47;18435558;32;20158;-56
2022/09/22 03:11:41;;;;;;;0.68;0.68;;;;;;;8.42;65.08;100977.66;18435095;32;20112;-56
2022/09/22 03:21:44;;;;;;;0.52;0.52;;;;;;;8.54;64.29;100973.56;18435918;32;20146;-56
2022/09/22 03:31:48;;;;;;;0.40;0.40;;;;;;;8.14;65.49;100982.41;18434322;32;20093;-56
2022/09/22 03:41:52;;;;;;;0.62;0.62;;;;;;;8.25;64.30;100979.09;18434223;32;20105;-56
2022/09/22 03:51:56;;;;;;;1.00;1.00;;;;;;;8.11;64.72;100979.75;18433603;32;20154;-56
2022/09/22 04:02:01;;;;;;;0.60;0.60;;;;;;;7.79;65.09;100982.66;18433796;32;20418;-56
2022/09/22 04:12:06;;;;;;;0.62;0.62;;;;;;;7.84;65.07;100978.41;18419269;32;20482;-56
2022/09/22 04:22:09;;;;;;;0.55;0.55;;;;;;;7.75;65.03;100976.53;18433299;32;20107;-56
2022/09/22 04:32:14;;;;;;;0.77;0.77;;;;;;;7.90;64.86;100977.66;18432718;32;20441;-56
2022/09/22 04:42:17;;;;;;;0.57;0.57;;;;;;;7.55;66.02;100994.31;18433911;32;20117;-57
2022/09/22 04:52:21;;;;;;;0.60;0.60;;;;;;;7.57;66.49;100995.22;18433505;32;20140;-56
2022/09/22 05:02:24;;;;;;;0.50;0.50;;;;;;;7.56;66.26;100987.41;18431690;32;20111;-56
2022/09/22 05:12:30;;;;;;;0.50;0.50;;;;;;;7.81;65.83;100985.28;18432425;32;20101;-56
2022/09/22 05:22:33;;;;;;;0.60;0.60;;;;;;;7.75;66.52;100986.03;18432122;32;20097;-56
2022/09/22 05:32:44;;;;;;;0.55;0.55;;;;;;;8.18;66.58;100989.41;18430535;32;20103;-56
2022/09/22 05:42:48;;;;;;;0.52;0.52;;;;;;;9.72;64.04;101001.12;18430240;32;20107;-56
2022/09/22 05:53:02;;;;;;;0.40;0.40;;;;;;;11.30;61.24;100982.34;18542603;32;20110;-56
2022/09/22 06:03:05;;;;;;;0.30;0.30;;;;;;;13.68;56.26;100983.06;18556104;32;20101;-57
2022/09/22 06:13:10;;;;;;;0.20;0.20;;;;;;;15.51;52.09;100985.75;18555847;32;20092;-57
2022/09/22 06:23:14;;;;;;;0.30;0.30;;;;;;;16.33;50.50;100990.72;18551524;32;20228;-57
2022/09/22 06:33:20;;;;;;;0.40;0.40;;;;;;;17.28;48.53;100981.94;18449848;32;20132;-57
2022/09/22 06:43:23;;;;;;;0.22;0.22;;;;;;;17.07;48.88;100991.16;18435995;32;20093;-57
2022/09/22 06:53:28;;;;;;;0.40;0.40;;;;;;;16.09;51.32;100982.31;18435462;32;20242;-57
2022/09/22 07:03:32;;;;;;;0.40;0.40;;;;;;;15.48;52.75;100988.41;18497743;32;20096;-57
2022/09/22 07:13:38;;;;;;;0.30;0.30;;;;;;;14.98;55.13;100983.75;18492306;32;20088;-57
2022/09/22 07:23:42;;;;;;;0.40;0.40;;;;;;;15.01;56.40;100993.37;18496153;32;20108;-57
2022/09/22 07:33:46;;;;;;;0.45;0.45;;;;;;;14.47;57.58;101005.25;18496862;32;20111;-57
2022/09/22 07:43:51;;;;;;;0.30;0.30;;;;;;;14.74;57.08;101002.41;18496637;32;20407;-57
2022/09/22 07:54:05;;;;;;;1.20;1.08;;;;;;;15.23;55.99;101007.16;18496271;32;20100;-57
2022/09/22 08:04:10;;;;;;;0.30;0.30;;;;;;;15.94;54.74;100994.84;18496950;32;20384;-59
2022/09/22 08:14:17;;;;;;;0.30;0.30;;;;;;;15.90;55.33;100986.97;18497188;32;20124;-57
2022/09/22 08:24:21;;;;;;;0.30;0.30;;;;;;;16.35;53.49;100983.66;18495034;32;20101;-57
2022/09/22 08:34:27;;;;;;;0.30;0.30;;;;;;;17.44;50.06;100982.50;18495056;32;20088;-56
2022/09/22 08:44:36;;;;;;;0.35;0.35;;;;;;;18.49;47.68;100977.41;18485970;32;20097;-57
2022/09/22 08:54:40;;;;;;;0.20;0.20;;;;;;;17.80;45.43;100973.75;18477259;32;20084;-57
2022/09/22 09:05:04;;;;;;;0.20;0.20;;;;;;;18.03;44.45;100975.00;18494019;32;20089;-57
2022/09/22 09:15:24;;;;;;;0.30;0.30;;;;;;;17.57;45.43;100975.16;18478116;32;20149;-57
2022/09/22 09:25:34;;;;;;;0.25;0.25;;;;;;;18.49;43.90;100969.47;18493426;32;20377;-57
2022/09/22 09:35:44;;;;;;;0.20;0.20;;;;;;;19.48;41.51;100969.37;18492989;32;20339;-57
2022/09/22 09:45:55;;;;;;;0.20;0.20;;;;;;;20.22;38.36;100973.28;18493093;32;20137;-57
2022/09/22 09:56:00;;;;;;;0.10;0.10;;;;;;;20.26;37.85;100966.09;18509402;32;20398;-57
2022/09/22 10:06:06;;;;;;;0.20;0.20;;;;;;;19.67;39.30;100972.31;18512386;32;20419;-57
2022/09/22 10:16:34;;;;;;;0.20;0.20;;;;;;;18.67;39.55;100966.34;18512059;32;20100;-57
2022/09/22 10:26:54;;;;;;;0.13;0.13;;;;;;;19.61;37.34;100963.72;18511164;32;20373;-57
2022/09/22 10:37:00;;;;;;;0.10;0.10;;;;;;;20.24;35.74;100960.84;18511080;32;20118;-57
2022/09/22 10:47:30;;;;;;;0.62;0.30;;;;;;;21.10;33.85;100960.50;18509709;32;20127;-57
2022/09/22 10:58:00;;;;;;;0.10;0.10;;;;;;;19.54;36.08;100955.97;18509085;32;20114;-58
2022/09/22 11:18:45;;;;;;;0.10;0.10;;;;;;;20.06;34.49;100930.50;18483235;32;20097;-56
2022/09/22 11:28:54;;;;;;;0.10;0.10;;;;;;;20.36;34.57;100919.78;18500218;32;20435;-56
2022/09/22 11:39:20;;;;;;;0.10;0.10;;;;;;;21.41;33.35;100893.81;18479378;32;20092;-57
2022/09/22 11:49:35;;;;;;;0.25;0.25;;;;;;;21.20;34.25;100895.53;18434014;32;20369;-57
2022/09/22 11:59:42;;;;;;;0.25;0.25;;;;;;;20.72;35.97;100894.66;18433848;32;20088;-57
2022/09/22 12:09:49;;;;;;;0.10;0.10;;;;;;;20.23;36.92;100883.09;18431813;32;20140;-57
2022/09/22 12:19:58;;;;;;;0.20;0.20;;;;;;;20.01;38.46;100877.66;18428570;32;20354;-57
2022/09/22 12:30:03;;;;;;;0.20;0.20;;;;;;;20.34;34.41;100869.47;18431997;32;20085;-56
2022/09/22 12:40:24;;;;;;;0.10;0.10;;;;;;;20.81;35.40;100849.22;18434424;32;20101;-57
2022/09/22 12:50:34;;;;;;;0.10;0.10;;;;;;;20.96;31.76;100830.97;18453377;32;20111;-57
2022/09/22 13:00:39;;;;;;;0.10;0.10;;;;;;;20.45;32.31;100828.44;18451298;32;20381;-57
2022/09/22 13:10:59;;;;;;;0.20;0.20;;;;;;;18.23;44.19;100838.91;18431174;32;20093;-56
2022/09/22 13:21:18;;;;;;;0.10;0.10;;;;;;;19.77;41.70;100821.94;18430113;32;20111;-56
2022/09/22 13:31:21;;;;;;;0.20;0.20;;;;;;;19.14;44.59;100827.50;18415340;32;20098;-57
2022/09/22 13:41:30;;;;;;;0.17;0.17;;;;;;;19.68;42.76;100820.47;18431384;32;20089;-56
2022/09/22 13:51:33;;;;;;;0.20;0.20;;;;;;;19.78;43.09;100818.38;18429873;32;20440;-56
2022/09/22 14:01:45;;;;;;;0.17;0.17;;;;;;;19.49;42.77;100799.03;18429513;32;20116;-56
2022/09/22 14:11:49;;;;;;;0.20;0.20;;;;;;;20.15;40.76;100804.78;18428012;32;20097;-58
2022/09/22 14:21:58;;;;;;;0.20;0.20;;;;;;;19.55;43.38;100795.31;18427667;32;20343;-57
2022/09/22 14:32:08;;;;;;;0.32;0.32;;;;;;;19.62;43.63;100806.56;18427434;32;20093;-56
2022/09/22 14:42:21;;;;;;;0.20;0.20;;;;;;;19.55;43.91;100801.47;18449132;32;20092;-56
2022/09/22 14:52:27;;;;;;;0.17;0.17;;;;;;;19.27;44.58;100801.50;18435218;32;20348;-56
2022/09/22 15:02:36;;;;;;;0.20;0.20;;;;;;;19.57;44.12;100789.97;18434920;32;20093;-56
2022/09/22 15:12:42;;;;;;;0.20;0.20;;;;;;;19.92;42.70;100790.53;18450617;32;20144;-56
2022/09/22 15:22:54;;;;;;;0.20;0.20;;;;;;;20.03;42.85;100790.19;18468269;32;20089;-56
2022/09/22 15:32:57;;;;;;;0.20;0.20;;;;;;;19.78;44.17;100791.03;18434550;32;20448;-57
2022/09/22 15:43:03;;;;;;;0.20;0.20;;;;;;;19.51;45.44;100791.03;18435424;32;20654;-56
2022/09/22 15:53:15;;;;;;;0.10;0.10;;;;;;;19.26;46.48;100787.44;18490852;32;20099;-56
2022/09/22 16:03:22;;;;;;;0.20;0.20;;;;;;;18.18;45.30;100796.78;18489386;32;187080;-57
2022/09/22 16:13:26;;;;;;;0.30;0.30;;;;;;;19.01;45.09;100802.34;18497773;32;20140;-56
2022/09/22 16:23:31;;;;;;;0.20;0.20;;;;;;;18.66;44.58;100805.12;18497321;32;20097;-56
2022/09/22 16:33:34;;;;;;;0.20;0.20;;;;;;;18.56;47.11;100815.09;18496521;32;20129;-56
2022/09/22 16:43:40;;;;;;;0.20;0.20;;;;;;;18.21;48.65;100819.56;18497201;32;20116;-56
2022/09/22 16:53:43;;;;;;;0.40;0.40;;;;;;;17.44;50.29;100823.25;18498181;32;20099;-56
2022/09/22 17:03:51;;;;;;;0.60;0.60;;;;;;;16.85;52.72;100827.19;18494050;32;20440;-57
2022/09/22 17:13:54;;;;;;;0.30;0.30;;;;;;;16.25;54.07;100839.84;18463812;32;20093;-57
2022/09/22 17:24:00;;;;;;;0.50;0.50;;;;;;;15.74;54.46;100844.19;18431948;32;20463;-57
2022/09/22 17:34:03;;;;;;;0.20;0.20;;;;;;;15.29;56.69;100858.91;18430876;32;20073;-57
2022/09/22 17:44:09;;;;;;;0.40;0.40;;;;;;;14.79;56.93;100869.22;18430419;32;20103;-57
2022/09/22 18:04:40;;;;;;;0.55;0.55;;;;;;;14.11;57.59;100886.53;18489937;32;20092;-57
2022/09/22 18:14:44;;;;;;;0.30;0.30;;;;;;;13.74;57.80;100903.44;18482963;32;20097;-56
2022/09/22 18:24:50;;;;;;;0.40;0.40;;;;;;;13.34;58.23;100912.41;18459610;32;20101;-56
2022/09/22 18:34:54;;;;;;;0.50;0.50;;;;;;;12.97;59.78;100918.69;18437355;32;20084;-56
2022/09/22 18:44:58;;;;;;;0.50;0.50;;;;;;;12.66;59.76;100926.62;18445940;32;20179;-57
2022/09/22 18:55:03;;;;;;;0.73;0.73;;;;;;;12.47;59.91;100936.28;18500191;32;20433;-57
2022/09/22 19:05:09;;;;;;;0.57;0.57;;;;;;;12.25;60.40;100940.66;18486558;32;20138;-57
2022/09/22 19:15:15;;;;;;;0.50;0.50;;;;;;;12.02;60.78;100938.91;18499272;32;20084;-56
2022/09/22 19:25:21;;;;;;;0.50;0.50;;;;;;;11.91;60.80;100933.66;18498305;32;20138;-56
2022/09/22 19:35:24;;;;;;;1.02;1.02;;;;;;;11.58;61.19;100933.59;18498891;32;20080;-56
2022/09/22 19:45:29;;;;;;;0.52;0.52;;;;;;;11.44;61.73;100932.72;18481730;32;20093;-56
2022/09/22 19:55:32;;;;;;;0.50;0.50;;;;;;;11.17;62.11;100937.84;18433975;32;20135;-56
2022/09/22 20:05:38;;;;;;;1.27;0.82;;;;;;;11.01;61.97;100951.72;18465913;32;20187;-57
2022/09/22 20:15:41;;;;;;;0.60;0.60;;;;;;;10.80;62.49;100955.94;18483805;32;20101;-57
2022/09/22 20:25:46;;;;;;;0.80;0.80;;;;;;;10.57;62.72;100961.91;18498785;32;20461;-56
2022/09/22 20:35:50;;;;;;;0.50;0.50;;;;;;;10.73;62.13;100969.84;18491520;32;20158;-57
2022/09/22 20:45:59;;;;;;;0.82;0.82;;;;;;;10.27;63.01;100960.78;18502956;32;20111;-57
2022/09/22 20:56:05;;;;;;;0.70;0.70;;;;;;;10.25;63.26;100960.75;18475868;32;20097;-57
2022/09/22 21:06:11;;;;;;;0.55;0.55;;;;;;;10.07;64.64;100977.16;18490714;32;20384;-57
2022/09/22 21:16:14;;;;;;;0.60;0.60;;;;;;;10.02;63.35;100976.22;18488864;32;20097;-56
2022/09/22 21:26:19;;;;;;;0.80;0.80;;;;;;;10.05;63.02;100984.06;18489718;32;20171;-57
2022/09/22 21:36:23;;;;;;;0.60;0.60;;;;;;;9.95;63.35;100984.84;18500665;32;20104;-57
2022/09/22 21:46:29;;;;;;;0.80;0.80;;;;;;;9.76;63.76;100987.25;18488105;32;20124;-57
2022/09/22 21:56:33;;;;;;;0.60;0.60;;;;;;;9.44;64.50;100991.28;18487712;32;20128;-57
2022/09/22 22:06:40;;;;;;;0.60;0.60;;;;;;;9.58;63.91;100983.63;18487633;32;20721;-57
2022/09/22 22:16:45;;;;;;;0.40;0.40;;;;;;;9.51;63.69;100992.22;18491381;32;20093;-57
2022/09/22 22:26:51;;;;;;;0.88;0.88;;;;;;;9.34;64.54;100985.91;18489093;32;20089;-57
2022/09/22 22:36:56;;;;;;;0.57;0.57;;;;;;;9.52;63.44;100987.84;18491744;32;20081;-56
2022/09/22 22:47:01;;;;;;;0.70;0.70;;;;;;;9.07;65.48;100984.69;18491335;32;20111;-56
2022/09/22 22:57:04;;;;;;;1.15;0.73;;;;;;;9.06;65.83;100975.13;18491149;32;20140;-56
2022/09/22 23:07:09;;;;;;;0.70;0.70;;;;;;;9.19;65.87;100979.66;18499511;32;20097;-56
2022/09/22 23:17:12;;;;;;;0.60;0.60;;;;;;;9.29;64.24;100965.00;18499740;32;20368;-56
2022/09/22 23:27:17;;;;;;;0.60;0.60;;;;;;;9.07;64.33;100958.66;18499458;32;20129;-56
2022/09/22 23:37:20;;;;;;;0.55;0.55;;;;;;;9.02;64.26;100963.81;18499087;32;20132;-57
2022/09/22 23:47:25;;;;;;;0.57;0.57;;;;;;;8.92;64.37;100961.94;18498814;32;20127;-56
2022/09/22 23:57:28;;;;;;;0.52;0.52;;;;;;;8.70;65.32;100967.69;18498567;32;20109;-56
